createdAt,value
2023-04-24T01:24:37.720Z,2.08
2023-04-24T01:25:40.799Z,1.37
2023-04-24T01:26:43.394Z,2.07
2023-04-24T01:27:46.437Z,2.32
2023-04-24T01:28:49.503Z,2.29
2023-04-24T01:29:52.581Z,2.28
2023-04-24T01:30:55.730Z,2.24
2023-04-24T01:31:58.691Z,2.43
2023-04-24T01:33:01.406Z,2.12
2023-04-24T01:34:03.784Z,2.08
2023-04-24T01:35:06.861Z,2.12
2023-04-24T01:36:10.135Z,1.93
2023-04-24T01:37:12.938Z,1.91
2023-04-24T01:38:15.497Z,2.14
2023-04-24T01:39:18.394Z,2.07
2023-04-24T01:40:21.150Z,2.18
2023-04-24T01:41:23.923Z,2.22
2023-04-24T01:42:26.698Z,2.25
2023-04-24T01:43:29.753Z,2.05
2023-04-24T01:44:33.048Z,2.20
2023-04-24T01:45:36.184Z,2.62
2023-04-24T01:46:39.349Z,2.18
2023-04-24T01:47:42.148Z,2.37
2023-04-24T01:48:44.969Z,2.28
2023-04-24T01:49:47.836Z,2.45
2023-04-24T01:50:51.098Z,2.02
2023-04-24T01:51:54.115Z,1.96
2023-04-24T01:52:57.267Z,2.28
2023-04-24T01:54:00.259Z,2.37
2023-04-24T01:55:03.236Z,2.43
2023-04-24T01:56:05.900Z,2.15
2023-04-24T01:57:08.779Z,2.25
2023-04-24T01:58:11.941Z,3.11
2023-04-24T01:59:14.628Z,3.97
2023-04-24T02:00:17.727Z,4.24
2023-04-24T02:01:21.021Z,4.45
2023-04-24T02:02:24.305Z,4.95
2023-04-24T02:03:27.851Z,4.05
2023-04-24T02:04:30.760Z,4.32
2023-04-24T02:05:34.015Z,4.99
2023-04-24T02:06:36.946Z,5.20
2023-04-24T02:07:40.066Z,4.98
2023-04-24T02:08:43.451Z,5.18
2023-04-24T02:09:46.432Z,4.78
2023-04-24T02:10:49.318Z,4.71
2023-04-24T02:11:51.986Z,4.68
2023-04-24T02:12:54.951Z,4.50
2023-04-24T02:13:57.754Z,4.48
2023-04-24T02:15:00.399Z,4.62
2023-04-24T02:16:03.031Z,4.75
2023-04-24T02:17:05.628Z,5.27
2023-04-24T02:18:08.346Z,4.79
2023-04-24T02:19:10.535Z,4.89
2023-04-24T02:20:12.977Z,4.67
2023-04-24T02:21:15.374Z,4.30
2023-04-24T02:22:17.913Z,4.75
2023-04-24T02:23:20.336Z,4.78
2023-04-24T02:24:22.877Z,4.54
2023-04-24T02:25:25.332Z,4.16
2023-04-24T02:26:27.801Z,4.30
2023-04-24T02:27:30.424Z,4.62
2023-04-24T02:28:32.893Z,4.28
2023-04-24T02:29:35.380Z,4.21
2023-04-24T02:30:37.862Z,4.13
2023-04-24T02:31:40.438Z,4.31
2023-04-24T02:32:42.947Z,4.28
2023-04-24T02:33:45.481Z,4.22
2023-04-24T02:34:48.011Z,4.15
2023-04-24T02:35:50.518Z,3.78
2023-04-24T02:36:53.024Z,4.32
2023-04-24T02:37:55.485Z,4.00
2023-04-24T02:38:57.891Z,3.97
2023-04-24T02:40:00.410Z,4.17
2023-04-24T02:41:03.110Z,4.25
2023-04-24T02:42:05.568Z,4.37
2023-04-24T02:43:08.097Z,3.95
2023-04-24T02:44:10.540Z,3.83
2023-04-24T02:45:12.756Z,4.12
2023-04-24T02:46:15.267Z,3.85
2023-04-24T02:47:17.707Z,4.42
2023-04-24T02:48:20.189Z,4.02
2023-04-24T02:49:22.650Z,3.97
2023-04-24T02:50:26.105Z,4.09
2023-04-24T02:51:31.805Z,3.75
2023-04-24T02:52:34.236Z,3.98
2023-04-24T02:53:36.769Z,4.33
2023-04-24T02:54:39.258Z,4.58
2023-04-24T02:55:41.982Z,4.09
2023-04-24T02:56:44.163Z,3.92
2023-04-24T02:57:46.380Z,3.97
2023-04-24T02:58:48.629Z,4.46
2023-04-24T02:59:50.826Z,3.97
2023-04-24T03:00:53.044Z,3.78
2023-04-24T03:01:55.324Z,3.50
2023-04-24T03:02:57.754Z,4.08
2023-04-24T03:04:00.451Z,4.18
2023-04-24T03:05:02.916Z,3.78
2023-04-24T03:06:05.111Z,3.59
2023-04-24T03:07:07.612Z,3.74
2023-04-24T03:08:10.052Z,3.97
2023-04-24T03:09:12.493Z,4.61
2023-04-24T03:10:14.921Z,4.69
2023-04-24T03:11:17.125Z,4.52
2023-04-24T03:12:19.593Z,4.42
2023-04-24T03:13:22.059Z,4.69
2023-04-24T03:14:24.521Z,4.72
2023-04-24T03:15:26.966Z,4.48
2023-04-24T03:16:29.384Z,4.48
2023-04-24T03:17:32.004Z,4.08
2023-04-24T03:18:34.519Z,4.57
2023-04-24T03:19:37.046Z,4.12
2023-04-24T03:20:39.472Z,4.09
2023-04-24T03:21:42.094Z,4.33
2023-04-24T03:22:44.296Z,4.58
2023-04-24T03:23:46.955Z,4.75
2023-04-24T03:24:49.595Z,4.58
2023-04-24T03:25:52.014Z,4.70
2023-04-24T03:26:54.452Z,4.61
2023-04-24T03:27:56.896Z,4.57
2023-04-24T03:28:59.350Z,4.81
2023-04-24T03:30:02.063Z,4.63
2023-04-24T03:31:04.656Z,4.98
2023-04-24T03:32:07.237Z,4.98
2023-04-24T03:33:09.663Z,4.98
2023-04-24T03:34:12.166Z,4.90
2023-04-24T03:35:14.621Z,4.62
2023-04-24T03:36:17.081Z,4.98
2023-04-24T03:37:19.531Z,5.34
2023-04-24T03:38:21.978Z,4.85
2023-04-24T03:39:24.426Z,4.73
2023-04-24T03:40:26.890Z,4.96
2023-04-24T03:41:29.117Z,5.12
2023-04-24T03:42:31.530Z,4.42
2023-04-24T03:43:33.718Z,5.33
2023-04-24T03:44:36.162Z,4.56
2023-04-24T03:45:38.579Z,5.75
2023-04-24T03:46:41.171Z,5.82
2023-04-24T03:47:43.719Z,4.63
2023-04-24T03:48:46.629Z,5.92
2023-04-24T03:49:49.071Z,4.82
2023-04-24T03:50:51.534Z,5.00
2023-04-24T03:51:54.045Z,4.23
2023-04-24T03:52:56.467Z,4.76
2023-04-24T03:53:58.932Z,4.64
2023-04-24T03:55:01.388Z,4.75
2023-04-24T03:56:03.945Z,4.46
2023-04-24T03:57:07.803Z,4.68
2023-04-24T03:58:10.227Z,4.47
2023-04-24T03:59:12.655Z,4.52
2023-04-24T04:00:15.158Z,4.83
2023-04-24T04:01:17.676Z,4.77
2023-04-24T04:02:20.233Z,4.57
2023-04-24T04:03:22.788Z,4.36
2023-04-24T04:04:25.654Z,4.25
2023-04-24T04:05:28.405Z,4.88
2023-04-24T04:06:30.694Z,4.68
2023-04-24T04:07:33.168Z,4.03
2023-04-24T04:08:35.744Z,4.43
2023-04-24T04:09:38.153Z,4.46
2023-04-24T04:10:40.631Z,4.11
2023-04-24T04:11:43.062Z,4.08
2023-04-24T04:12:45.625Z,4.22
2023-04-24T04:13:48.093Z,4.44
2023-04-24T04:14:50.565Z,4.10
2023-04-24T04:15:53.081Z,4.00
2023-04-24T04:16:55.684Z,3.94
2023-04-24T04:17:58.132Z,4.27
2023-04-24T04:19:00.642Z,4.36
2023-04-24T04:20:03.065Z,4.51
2023-04-24T04:21:05.906Z,4.42
2023-04-24T04:22:08.367Z,4.33
2023-04-24T04:23:10.560Z,4.39
2023-04-24T04:24:12.795Z,4.61
2023-04-24T04:25:15.011Z,4.38
2023-04-24T04:26:17.205Z,4.47
2023-04-24T04:27:19.414Z,4.87
2023-04-24T04:28:21.649Z,5.00
2023-04-24T04:29:23.867Z,5.38
2023-04-24T04:30:26.070Z,5.23
2023-04-24T04:31:28.284Z,5.94
2023-04-24T04:32:30.795Z,5.57
2023-04-24T04:33:33.293Z,5.49
2023-04-24T04:34:35.698Z,5.64
2023-04-24T04:35:38.128Z,5.62
2023-04-24T04:36:40.624Z,5.41
2023-04-24T04:37:43.131Z,5.99
2023-04-24T04:38:45.723Z,5.57
2023-04-24T04:39:48.283Z,5.96
2023-04-24T04:40:50.896Z,5.58
2023-04-24T04:41:53.310Z,5.72
2023-04-24T04:42:55.754Z,5.77
2023-04-24T04:43:58.196Z,5.98
2023-04-24T04:45:00.752Z,6.13
2023-04-24T04:46:02.993Z,5.96
2023-04-24T04:47:05.298Z,5.66
2023-04-24T04:48:07.519Z,5.46
2023-04-24T04:49:09.791Z,5.24
2023-04-24T04:50:12.029Z,5.58
2023-04-24T04:51:14.273Z,6.22
2023-04-24T04:52:16.436Z,5.55
2023-04-24T04:53:18.666Z,5.68
2023-04-24T04:54:20.879Z,6.66
2023-04-24T04:55:23.120Z,6.35
2023-04-24T04:56:25.373Z,6.20
2023-04-24T04:57:27.567Z,6.32
2023-04-24T04:58:29.802Z,6.66
2023-04-24T04:59:31.987Z,7.06
2023-04-24T05:00:35.949Z,6.73
2023-04-24T05:01:38.105Z,6.67
2023-04-24T05:02:40.495Z,6.96
2023-04-24T05:03:42.960Z,7.69
2023-04-24T05:04:45.547Z,7.26
2023-04-24T05:05:48.149Z,6.60
2023-04-24T05:06:50.351Z,6.31
2023-04-24T05:07:52.515Z,6.52
2023-04-24T05:08:54.846Z,6.42
2023-04-24T05:09:57.031Z,6.28
2023-04-24T05:10:59.303Z,6.62
2023-04-24T05:12:01.474Z,6.79
2023-04-24T05:13:04.066Z,6.61
2023-04-24T05:14:06.462Z,7.36
2023-04-24T05:15:08.879Z,7.64
2023-04-24T05:16:11.072Z,7.45
2023-04-24T05:17:13.624Z,7.23
2023-04-24T05:18:16.131Z,7.02
2023-04-24T05:19:18.610Z,7.18
2023-04-24T05:20:20.869Z,7.04
2023-04-24T05:21:23.426Z,6.88
2023-04-24T05:22:25.865Z,6.68
2023-04-24T05:23:28.317Z,6.28
2023-04-24T05:24:30.835Z,7.18
2023-04-24T05:25:33.315Z,7.14
2023-04-24T05:26:35.974Z,7.23
2023-04-24T05:27:38.486Z,7.40
2023-04-24T05:28:45.652Z,7.28
2023-04-24T05:29:47.881Z,6.98
2023-04-24T05:30:50.066Z,7.27
2023-04-24T05:31:52.548Z,7.24
2023-04-24T05:32:55.027Z,7.28
2023-04-24T05:33:57.415Z,7.11
2023-04-24T05:34:59.853Z,6.78
2023-04-24T05:36:02.047Z,7.20
2023-04-24T05:37:04.250Z,6.93
2023-04-24T05:38:06.457Z,6.68
2023-04-24T05:39:08.780Z,6.67
2023-04-24T05:40:11.257Z,6.88
2023-04-24T05:41:13.664Z,7.19
2023-04-24T05:42:16.085Z,8.55
2023-04-24T05:43:18.612Z,7.43
2023-04-24T05:44:21.082Z,7.67
2023-04-24T05:45:23.567Z,7.33
2023-04-24T05:46:26.013Z,7.32
2023-04-24T05:47:28.692Z,7.66
2023-04-24T05:48:31.017Z,7.37
2023-04-24T05:49:33.222Z,6.88
2023-04-24T05:50:37.206Z,6.82
2023-04-24T05:51:39.431Z,7.36
2023-04-24T05:52:41.683Z,7.59
2023-04-24T05:53:44.119Z,6.99
2023-04-24T05:54:46.320Z,7.15
2023-04-24T05:55:48.592Z,7.35
2023-04-24T05:56:50.812Z,7.67
2023-04-24T05:57:53.399Z,7.12
2023-04-24T05:58:55.839Z,6.41
2023-04-24T05:59:58.037Z,7.55
2023-04-24T06:01:00.499Z,7.40
2023-04-24T06:02:02.784Z,6.93
2023-04-24T06:03:05.520Z,6.67
2023-04-24T06:04:08.239Z,6.81
2023-04-24T06:05:10.557Z,6.67
2023-04-24T06:06:13.240Z,6.73
2023-04-24T06:07:15.618Z,7.21
2023-04-24T06:08:18.197Z,7.03
2023-04-24T06:09:20.459Z,6.56
2023-04-24T06:10:22.708Z,7.27
2023-04-24T06:11:25.188Z,6.72
2023-04-24T06:12:27.679Z,6.84
2023-04-24T06:13:30.119Z,6.70
2023-04-24T06:14:32.425Z,6.72
2023-04-24T06:15:34.685Z,7.25
2023-04-24T06:16:37.187Z,7.01
2023-04-24T06:17:39.694Z,6.42
2023-04-24T06:18:42.065Z,6.86
2023-04-24T06:19:44.516Z,6.77
2023-04-24T06:20:47.076Z,6.63
2023-04-24T06:21:49.330Z,6.47
2023-04-24T06:22:51.535Z,6.95
2023-04-24T06:23:53.806Z,6.41
2023-04-24T06:24:56.038Z,6.58
2023-04-24T06:25:58.245Z,6.75
2023-04-24T06:27:00.753Z,6.32
2023-04-24T06:28:02.934Z,6.47
2023-04-24T06:29:05.371Z,6.43
2023-04-24T06:30:08.809Z,6.62
2023-04-24T06:31:11.427Z,6.89
2023-04-24T06:32:14.115Z,6.41
2023-04-24T06:33:21.006Z,6.65
2023-04-24T06:34:20.853Z,6.36
2023-04-24T06:35:23.511Z,6.36
2023-04-24T06:36:25.950Z,6.27
2023-04-24T06:37:28.316Z,6.40
2023-04-24T06:38:30.812Z,6.05
2023-04-24T06:39:33.075Z,5.76
2023-04-24T06:40:35.354Z,6.29
2023-04-24T06:41:37.580Z,5.92
2023-04-24T06:42:40.073Z,6.12
2023-04-24T06:43:42.514Z,5.72
2023-04-24T06:44:45.016Z,5.62
2023-04-24T06:45:47.521Z,5.72
2023-04-24T06:46:50.127Z,5.35
2023-04-24T06:47:52.569Z,5.62
2023-04-24T06:48:55.039Z,5.72
2023-04-24T06:49:57.282Z,5.83
2023-04-24T06:50:59.485Z,5.64
2023-04-24T06:52:01.706Z,5.79
2023-04-24T06:53:04.043Z,5.58
2023-04-24T06:54:06.598Z,5.86
2023-04-24T06:55:08.779Z,5.30
2023-04-24T06:56:11.014Z,5.22
2023-04-24T06:57:13.250Z,6.02
2023-04-24T06:58:16.034Z,5.66
2023-04-24T06:59:18.515Z,5.97
2023-04-24T07:00:21.184Z,5.88
2023-04-24T07:01:24.088Z,5.47
2023-04-24T07:02:26.911Z,5.22
2023-04-24T07:03:29.758Z,4.98
2023-04-24T07:04:32.286Z,4.68
2023-04-24T07:05:34.796Z,4.58
2023-04-24T07:06:37.384Z,4.24
2023-04-24T07:07:39.610Z,4.82
2023-04-24T07:08:42.184Z,4.99
2023-04-24T07:09:44.902Z,4.45
2023-04-24T07:10:47.647Z,4.54
2023-04-24T07:11:49.984Z,3.91
2023-04-24T07:12:52.293Z,4.43
2023-04-24T07:13:54.934Z,4.14
2023-04-24T07:14:57.092Z,4.15
2023-04-24T07:15:59.352Z,4.62
2023-04-24T07:17:01.738Z,4.08
2023-04-24T07:18:05.865Z,3.92
2023-04-24T07:19:07.963Z,3.84
2023-04-24T07:20:10.266Z,3.98
2023-04-24T07:21:12.533Z,4.17
2023-04-24T07:22:14.744Z,3.66
2023-04-24T07:23:17.179Z,3.28
2023-04-24T07:24:21.770Z,3.48
2023-04-24T07:25:23.364Z,3.65
2023-04-24T07:26:25.519Z,4.08
2023-04-24T07:27:27.763Z,4.16
2023-04-24T07:28:30.159Z,3.96
2023-04-24T07:29:32.585Z,3.82
2023-04-24T07:30:35.049Z,3.77
2023-04-24T07:31:37.633Z,3.45
2023-04-24T07:32:40.117Z,3.64
2023-04-24T07:33:42.579Z,3.94
2023-04-24T07:34:46.651Z,4.18
2023-04-24T07:35:49.134Z,4.59
2023-04-24T07:36:51.732Z,4.12
2023-04-24T07:37:54.160Z,4.66
2023-04-24T07:38:56.670Z,4.36
2023-04-24T07:39:59.197Z,3.58
2023-04-24T07:41:01.648Z,3.99
2023-04-24T07:42:04.215Z,4.21
2023-04-24T07:43:06.380Z,4.30
2023-04-24T07:44:08.622Z,3.86
2023-04-24T07:45:11.214Z,4.34
2023-04-24T07:46:13.798Z,3.88
2023-04-24T07:47:16.336Z,3.65
2023-04-24T07:48:18.995Z,3.49
2023-04-24T07:49:21.158Z,3.58
2023-04-24T07:50:23.488Z,3.97
2023-04-24T07:51:25.771Z,4.03
2023-04-24T07:52:27.979Z,3.73
2023-04-24T07:53:30.514Z,4.06
2023-04-24T07:54:32.905Z,4.16
2023-04-24T07:55:35.402Z,3.79
2023-04-24T07:56:37.657Z,3.69
2023-04-24T07:57:39.841Z,4.04
2023-04-24T07:58:42.102Z,3.62
2023-04-24T07:59:44.668Z,3.72
2023-04-24T08:00:47.006Z,3.69
2023-04-24T08:01:49.425Z,4.08
2023-04-24T08:02:51.748Z,4.03
2023-04-24T08:03:54.400Z,4.08
2023-04-24T08:04:57.745Z,4.29
2023-04-24T08:06:01.678Z,4.68
2023-04-24T08:07:04.072Z,4.32
2023-04-24T08:08:06.342Z,4.21
2023-04-24T08:09:08.551Z,4.43
2023-04-24T08:10:10.735Z,4.51
2023-04-24T08:11:13.524Z,4.44
2023-04-24T08:12:15.846Z,4.30
2023-04-24T08:13:18.078Z,4.86
2023-04-24T08:14:20.324Z,4.91
2023-04-24T08:15:22.766Z,4.60
2023-04-24T08:16:25.483Z,4.21
2023-04-24T08:17:28.032Z,4.53
2023-04-24T08:18:30.464Z,4.44
2023-04-24T08:19:32.757Z,4.72
2023-04-24T08:20:34.970Z,4.26
2023-04-24T08:21:37.411Z,4.83
2023-04-24T08:22:39.743Z,5.50
2023-04-24T08:23:42.031Z,5.28
2023-04-24T08:24:44.510Z,5.32
2023-04-24T08:25:46.733Z,5.25
2023-04-24T08:26:49.231Z,5.46
2023-04-24T08:27:51.544Z,5.16
2023-04-24T08:28:53.988Z,5.23
2023-04-24T08:29:56.205Z,5.58
2023-04-24T08:30:58.612Z,5.70
2023-04-24T08:32:01.003Z,5.22
2023-04-24T08:33:03.346Z,5.87
2023-04-24T08:34:05.894Z,6.00
2023-04-24T08:35:08.405Z,5.98
2023-04-24T08:36:10.719Z,6.07
2023-04-24T08:37:13.265Z,5.93
2023-04-24T08:38:15.723Z,6.74
2023-04-24T08:39:18.558Z,6.44
2023-04-24T08:40:21.127Z,6.71
2023-04-24T08:41:23.718Z,6.78
2023-04-24T08:42:26.261Z,7.22
2023-04-24T08:43:29.510Z,6.79
2023-04-24T08:44:32.135Z,6.99
2023-04-24T08:45:34.797Z,6.62
2023-04-24T08:46:37.453Z,6.87
2023-04-24T08:47:40.133Z,7.55
2023-04-24T08:48:42.634Z,6.83
2023-04-24T08:49:45.233Z,6.56
2023-04-24T08:50:47.776Z,7.20
2023-04-24T08:51:50.232Z,7.65
2023-04-24T08:52:52.743Z,7.55
2023-04-24T08:53:55.176Z,6.84
2023-04-24T08:54:57.634Z,7.19
2023-04-24T08:56:00.193Z,7.79
2023-04-24T08:57:02.718Z,6.83
2023-04-24T08:58:05.627Z,7.03
2023-04-24T08:59:08.098Z,7.30
2023-04-24T09:00:11.914Z,7.87
2023-04-24T09:01:14.113Z,7.14
2023-04-24T09:02:16.658Z,6.47
2023-04-24T09:03:19.372Z,7.00
2023-04-24T09:04:22.072Z,7.10
2023-04-24T09:05:25.796Z,6.69
2023-04-24T09:06:28.633Z,6.88
2023-04-24T09:07:32.249Z,6.76
2023-04-24T09:08:34.900Z,7.20
2023-04-24T09:09:37.525Z,7.25
2023-04-24T09:10:39.980Z,7.01
2023-04-24T09:11:42.268Z,7.47
2023-04-24T09:12:44.522Z,6.78
2023-04-24T09:13:47.083Z,6.58
2023-04-24T09:14:49.606Z,6.93
2023-04-24T09:15:51.962Z,6.53
2023-04-24T09:16:54.326Z,6.54
2023-04-24T09:17:56.658Z,6.91
2023-04-24T09:18:59.083Z,7.17
2023-04-24T09:20:01.383Z,7.40
2023-04-24T09:21:03.721Z,6.93
2023-04-24T09:22:05.918Z,7.25
2023-04-24T09:23:08.121Z,6.33
2023-04-24T09:24:10.380Z,6.68
2023-04-24T09:25:12.679Z,6.88
2023-04-24T09:26:14.901Z,7.60
2023-04-24T09:27:17.117Z,6.69
2023-04-24T09:28:19.292Z,6.74
2023-04-24T09:29:21.592Z,7.20
2023-04-24T09:30:23.799Z,6.66
2023-04-24T09:31:26.000Z,6.60
2023-04-24T09:32:28.197Z,6.77
2023-04-24T09:33:30.730Z,6.40
2023-04-24T09:34:33.330Z,6.98
2023-04-24T09:35:35.536Z,6.48
2023-04-24T09:36:37.933Z,6.44
2023-04-24T09:37:40.534Z,7.00
2023-04-24T09:38:42.934Z,6.57
2023-04-24T09:39:45.525Z,6.76
2023-04-24T09:40:47.820Z,6.38
2023-04-24T09:41:50.196Z,6.58
2023-04-24T09:42:52.942Z,6.65
2023-04-24T09:43:55.184Z,6.95
2023-04-24T09:45:04.573Z,6.83
2023-04-24T09:46:01.308Z,6.71
2023-04-24T09:47:03.613Z,6.67
2023-04-24T09:48:05.897Z,7.68
2023-04-24T09:49:08.156Z,6.89
2023-04-24T09:50:10.407Z,6.12
2023-04-24T09:51:12.878Z,7.11
2023-04-24T09:52:15.392Z,6.91
2023-04-24T09:53:17.630Z,6.33
2023-04-24T09:54:19.974Z,7.11
2023-04-24T09:55:22.491Z,6.57
2023-04-24T09:56:24.945Z,6.26
2023-04-24T09:57:27.220Z,7.05
2023-04-24T09:58:29.449Z,6.67
2023-04-24T09:59:31.699Z,6.32
2023-04-24T10:00:34.132Z,6.50
2023-04-24T10:01:36.560Z,6.54
2023-04-24T10:02:39.197Z,6.74
2023-04-24T10:03:41.518Z,6.52
2023-04-24T10:04:45.306Z,5.95
2023-04-24T10:05:48.205Z,6.52
2023-04-24T10:06:50.683Z,5.75
2023-04-24T10:07:52.892Z,6.26
2023-04-24T10:08:55.139Z,5.48
2023-04-24T10:09:57.971Z,5.18
2023-04-24T10:11:00.582Z,5.43
2023-04-24T10:12:02.929Z,5.55
2023-04-24T10:13:05.180Z,5.67
2023-04-24T10:14:07.397Z,5.53
2023-04-24T10:15:09.931Z,5.38
2023-04-24T10:16:12.184Z,5.38
2023-04-24T10:17:14.354Z,6.25
2023-04-24T10:18:16.996Z,6.00
2023-04-24T10:19:19.538Z,5.68
2023-04-24T10:20:23.089Z,5.78
2023-04-24T10:21:25.641Z,5.77
2023-04-24T10:22:28.090Z,6.16
2023-04-24T10:23:30.779Z,6.59
2023-04-24T10:24:33.001Z,5.67
2023-04-24T10:25:35.215Z,5.94
2023-04-24T10:26:37.473Z,5.71
2023-04-24T10:27:39.658Z,6.41
2023-04-24T10:28:41.927Z,6.44
2023-04-24T10:29:44.149Z,6.37
2023-04-24T10:30:46.358Z,5.91
2023-04-24T10:31:48.800Z,7.03
2023-04-24T10:32:51.435Z,7.20
2023-04-24T10:33:53.884Z,7.05
2023-04-24T10:34:56.449Z,6.83
2023-04-24T10:36:00.501Z,6.72
2023-04-24T10:37:03.222Z,6.34
2023-04-24T10:38:05.454Z,5.96
2023-04-24T10:39:07.892Z,6.40
2023-04-24T10:40:10.411Z,6.33
2023-04-24T10:41:12.829Z,6.19
2023-04-24T10:42:15.216Z,6.12
2023-04-24T10:43:17.818Z,6.25
2023-04-24T10:44:20.261Z,5.87
2023-04-24T10:45:22.682Z,5.95
2023-04-24T10:46:25.107Z,6.54
2023-04-24T10:47:27.813Z,5.92
2023-04-24T10:48:30.034Z,5.52
2023-04-24T10:49:32.319Z,5.96
2023-04-24T10:50:34.762Z,6.14
2023-04-24T10:51:37.027Z,6.00
2023-04-24T10:52:39.640Z,6.45
2023-04-24T10:53:42.080Z,5.78
2023-04-24T10:54:44.415Z,5.88
2023-04-24T10:55:46.885Z,5.97
2023-04-24T10:56:49.564Z,6.20
2023-04-24T10:57:52.012Z,6.62
2023-04-24T10:58:54.213Z,6.37
2023-04-24T10:59:56.931Z,6.75
2023-04-24T11:00:59.201Z,6.41
2023-04-24T11:02:02.038Z,6.91
2023-04-24T11:03:04.611Z,7.30
2023-04-24T11:04:07.311Z,7.54
2023-04-24T11:05:09.860Z,6.85
2023-04-24T11:06:12.072Z,6.43
2023-04-24T11:07:14.496Z,6.18
2023-04-24T11:08:17.194Z,7.43
2023-04-24T11:09:19.683Z,7.12
2023-04-24T11:10:22.167Z,7.21
2023-04-24T11:11:24.937Z,6.92
2023-04-24T11:12:27.391Z,6.89
2023-04-24T11:13:29.957Z,6.37
2023-04-24T11:14:32.467Z,7.01
2023-04-24T11:15:34.906Z,6.76
2023-04-24T11:16:37.342Z,6.93
2023-04-24T11:17:39.607Z,6.83
2023-04-24T11:18:42.140Z,7.10
2023-04-24T11:19:44.374Z,7.13
2023-04-24T11:20:46.615Z,7.58
2023-04-24T11:21:48.841Z,7.02
2023-04-24T11:22:51.015Z,6.75
2023-04-24T11:23:53.259Z,6.61
2023-04-24T11:24:55.883Z,7.05
2023-04-24T11:25:58.308Z,6.92
2023-04-24T11:27:03.671Z,6.61
2023-04-24T11:28:05.895Z,7.26
2023-04-24T11:29:12.932Z,6.92
2023-04-24T11:30:15.165Z,7.14
2023-04-24T11:31:17.376Z,6.79
2023-04-24T11:32:19.728Z,7.03
2023-04-24T11:33:22.439Z,6.40
2023-04-24T11:34:25.059Z,7.33
2023-04-24T11:35:27.284Z,6.69
2023-04-24T11:36:29.451Z,7.38
2023-04-24T11:37:31.877Z,7.86
2023-04-24T11:38:35.065Z,8.18
2023-04-24T11:39:37.877Z,6.84
2023-04-24T11:40:40.277Z,7.04
2023-04-24T11:41:42.904Z,7.28
2023-04-24T11:42:45.305Z,6.96
2023-04-24T11:43:47.807Z,7.08
2023-04-24T11:44:53.056Z,6.32
2023-04-24T11:45:55.605Z,6.69
2023-04-24T11:46:58.098Z,6.88
2023-04-24T11:48:01.240Z,7.30
2023-04-24T11:49:03.797Z,6.92
2023-04-24T11:50:06.409Z,6.75
2023-04-24T11:51:08.722Z,6.95
2023-04-24T11:52:10.943Z,7.66
2023-04-24T11:53:13.146Z,7.88
2023-04-24T11:54:15.352Z,7.53
2023-04-24T11:55:17.679Z,6.62
2023-04-24T11:56:19.877Z,6.56
2023-04-24T11:57:22.834Z,7.31
2023-04-24T11:58:25.663Z,7.24
2023-04-24T11:59:28.172Z,7.23
2023-04-24T12:00:31.125Z,7.26
2023-04-24T12:01:33.402Z,6.87
2023-04-24T12:02:38.982Z,7.67
2023-04-24T12:03:39.576Z,6.86
2023-04-24T12:04:44.060Z,6.84
2023-04-24T12:05:46.984Z,7.20
2023-04-24T12:06:49.588Z,7.22
2023-04-24T12:07:52.117Z,7.40
2023-04-24T12:08:55.217Z,7.65
2023-04-24T12:09:58.784Z,7.58
2023-04-24T12:11:01.424Z,7.38
2023-04-24T12:12:03.634Z,6.97
2023-04-24T12:13:06.030Z,7.03
2023-04-24T12:14:08.220Z,7.26
2023-04-24T12:15:10.476Z,6.96
2023-04-24T12:16:12.978Z,6.70
2023-04-24T12:17:15.558Z,7.24
2023-04-24T12:18:17.866Z,6.84
2023-04-24T12:19:20.425Z,6.94
2023-04-24T12:20:22.669Z,6.89
2023-04-24T12:21:25.426Z,7.18
2023-04-24T12:22:27.938Z,7.08
2023-04-24T12:23:31.339Z,6.28
2023-04-24T12:24:33.562Z,6.48
2023-04-24T12:25:35.841Z,6.80
2023-04-24T12:26:38.277Z,6.97
2023-04-24T12:27:40.506Z,7.05
2023-04-24T12:28:42.700Z,6.53
2023-04-24T12:29:45.079Z,6.36
2023-04-24T12:30:47.290Z,6.88
2023-04-24T12:31:49.675Z,7.08
2023-04-24T12:32:52.052Z,7.52
2023-04-24T12:33:54.438Z,7.72
2023-04-24T12:34:56.653Z,7.04
2023-04-24T12:35:58.836Z,7.29
2023-04-24T12:37:01.091Z,8.09
2023-04-24T12:38:03.270Z,7.60
2023-04-24T12:39:05.454Z,7.12
2023-04-24T12:40:08.047Z,7.47
2023-04-24T12:41:10.584Z,6.93
2023-04-24T12:42:13.013Z,7.74
2023-04-24T12:43:15.306Z,6.97
2023-04-24T12:44:17.827Z,7.62
2023-04-24T12:45:20.022Z,7.26
2023-04-24T12:46:23.381Z,6.52
2023-04-24T12:47:25.708Z,7.18
2023-04-24T12:48:27.983Z,7.37
2023-04-24T12:49:30.926Z,6.72
2023-04-24T12:50:33.155Z,6.50
2023-04-24T12:51:35.355Z,6.94
2023-04-24T12:52:37.791Z,7.87
2023-04-24T12:53:40.272Z,6.91
2023-04-24T12:54:42.872Z,7.51
2023-04-24T12:55:45.456Z,7.45
2023-04-24T12:56:48.038Z,7.69
2023-04-24T12:57:50.665Z,7.75
2023-04-24T12:58:53.112Z,7.60
2023-04-24T12:59:55.310Z,8.03
2023-04-24T13:00:57.550Z,6.84
2023-04-24T13:01:59.973Z,7.37
2023-04-24T13:03:02.578Z,8.11
2023-04-24T13:04:05.323Z,7.86
2023-04-24T13:05:07.667Z,8.68
2023-04-24T13:06:09.896Z,7.39
2023-04-24T13:07:12.312Z,6.79
2023-04-24T13:08:14.795Z,6.84
2023-04-24T13:09:17.290Z,7.90
2023-04-24T13:10:19.735Z,7.18
2023-04-24T13:11:22.192Z,7.49
2023-04-24T13:12:24.580Z,7.33
2023-04-24T13:13:26.816Z,7.22
2023-04-24T13:14:29.038Z,6.71
2023-04-24T13:15:32.899Z,7.48
2023-04-24T13:16:35.538Z,7.64
2023-04-24T13:17:38.081Z,7.63
2023-04-24T13:18:40.633Z,6.66
2023-04-24T13:19:42.831Z,6.80
2023-04-24T13:20:45.128Z,7.35
2023-04-24T13:21:47.853Z,7.62
2023-04-24T13:22:50.065Z,6.99
2023-04-24T13:23:52.740Z,7.08
2023-04-24T13:24:54.970Z,7.57
2023-04-24T13:25:57.191Z,6.59
2023-04-24T13:26:59.432Z,7.12
2023-04-24T13:28:01.669Z,7.45
2023-04-24T13:29:04.119Z,7.31
2023-04-24T13:30:06.479Z,7.80
2023-04-24T13:31:08.759Z,8.23
2023-04-24T13:32:10.972Z,7.94
2023-04-24T13:33:13.263Z,8.55
2023-04-24T13:34:15.876Z,7.90
2023-04-24T13:35:18.087Z,7.84
2023-04-24T13:36:20.495Z,7.48
2023-04-24T13:37:22.832Z,6.83
2023-04-24T13:38:25.660Z,7.03
2023-04-24T13:39:27.876Z,7.74
2023-04-24T13:40:30.103Z,7.65
2023-04-24T13:41:32.402Z,7.77
2023-04-24T13:42:34.823Z,7.79
2023-04-24T13:43:37.378Z,8.03
2023-04-24T13:44:39.942Z,8.35
2023-04-24T13:45:42.174Z,8.71
2023-04-24T13:46:44.479Z,8.01
2023-04-24T13:47:47.018Z,7.77
2023-04-24T13:48:49.636Z,7.07
2023-04-24T13:49:52.360Z,7.82
2023-04-24T13:50:54.695Z,7.62
2023-04-24T13:51:57.114Z,7.76
2023-04-24T13:53:00.753Z,7.99
2023-04-24T13:54:03.521Z,7.49
2023-04-24T13:55:06.000Z,7.64
2023-04-24T13:56:08.377Z,7.88
2023-04-24T13:57:10.616Z,7.63
2023-04-24T13:58:13.118Z,7.50
2023-04-24T13:59:15.616Z,7.57
2023-04-24T14:00:17.888Z,7.15
2023-04-24T14:01:20.213Z,7.45
2023-04-24T14:02:22.579Z,7.86
2023-04-24T14:03:25.306Z,7.50
2023-04-24T14:04:27.965Z,7.25
2023-04-24T14:05:30.589Z,7.55
2023-04-24T14:06:33.162Z,7.51
2023-04-24T14:07:35.405Z,7.51
2023-04-24T14:08:37.673Z,7.48
2023-04-24T14:09:40.029Z,7.53
2023-04-24T14:10:42.476Z,8.19
2023-04-24T14:11:44.682Z,7.85
2023-04-24T14:12:47.239Z,7.72
2023-04-24T14:13:49.486Z,7.55
2023-04-24T14:14:51.704Z,7.56
2023-04-24T14:15:54.266Z,7.49
2023-04-24T14:16:56.570Z,7.22
2023-04-24T14:17:58.919Z,7.59
2023-04-24T14:19:01.262Z,7.92
2023-04-24T14:20:03.519Z,7.44
2023-04-24T14:21:05.783Z,6.68
2023-04-24T14:22:07.985Z,7.81
2023-04-24T14:23:10.153Z,7.51
2023-04-24T14:24:12.529Z,7.70
2023-04-24T14:25:14.924Z,8.11
2023-04-24T14:26:17.246Z,7.58
2023-04-24T14:27:19.892Z,8.09
2023-04-24T14:28:22.163Z,7.54
2023-04-24T14:29:24.422Z,7.96
2023-04-24T14:30:26.798Z,8.40
2023-04-24T14:31:29.077Z,7.87
2023-04-24T14:32:31.462Z,7.75
2023-04-24T14:33:33.916Z,7.64
2023-04-24T14:34:36.175Z,8.35
2023-04-24T14:35:38.344Z,7.91
2023-04-24T14:36:40.783Z,7.76
2023-04-24T14:37:43.023Z,8.72
2023-04-24T14:38:45.245Z,8.37
2023-04-24T14:39:56.319Z,8.64
2023-04-24T14:41:55.202Z,8.04
2023-04-24T14:42:57.563Z,8.77
2023-04-24T14:43:59.733Z,8.18
2023-04-24T14:45:02.248Z,7.72
2023-04-24T14:46:04.452Z,7.97
2023-04-24T14:47:06.843Z,8.29
2023-04-24T14:48:09.387Z,8.83
2023-04-24T14:49:11.801Z,8.46
2023-04-24T14:50:14.028Z,8.43
2023-04-24T14:51:16.777Z,8.16
2023-04-24T14:52:19.390Z,8.27
2023-04-24T14:53:21.650Z,8.96
2023-04-24T14:54:23.934Z,7.97
2023-04-24T14:55:26.171Z,8.84
2023-04-24T14:56:28.441Z,8.82
2023-04-24T14:57:31.400Z,7.77
2023-04-24T14:58:33.626Z,8.41
2023-04-24T14:59:35.807Z,8.67
2023-04-24T15:00:38.046Z,8.68
2023-04-24T15:01:40.327Z,8.66
2023-04-24T15:02:43.300Z,8.08
2023-04-24T15:03:46.373Z,7.96
2023-04-24T15:04:49.290Z,8.24
2023-04-24T15:05:51.717Z,9.00
2023-04-24T15:06:54.076Z,8.38
2023-04-24T15:07:56.452Z,8.38
2023-04-24T15:08:58.618Z,8.54
2023-04-24T15:10:00.964Z,8.11
2023-04-24T15:11:03.464Z,8.72
2023-04-24T15:12:06.034Z,8.58
2023-04-24T15:13:09.660Z,8.41
2023-04-24T15:14:12.457Z,9.22
2023-04-24T15:15:14.689Z,8.87
2023-04-24T15:16:17.074Z,9.03
2023-04-24T15:17:19.484Z,8.99